createdAt,value
2022-08-19T00:01:31.474Z,26.13
2022-08-19T00:03:59.858Z,32.47
2022-08-19T00:06:28.221Z,27.60
2022-08-19T00:08:56.394Z,32.20
2022-08-19T00:11:26.324Z,26.20
2022-08-19T00:13:54.083Z,24.13
2022-08-19T00:16:26.131Z,26.97
2022-08-19T00:18:54.705Z,27.13
2022-08-19T00:21:22.370Z,35.37
2022-08-19T00:23:49.946Z,26.63
2022-08-19T00:26:18.168Z,31.33
2022-08-19T00:28:47.976Z,27.23
2022-08-19T00:31:17.140Z,27.10
2022-08-19T00:33:45.073Z,24.30
2022-08-19T00:36:13.632Z,26.60
2022-08-19T00:38:44.231Z,21.53
2022-08-19T00:41:15.419Z,29.77
2022-08-19T00:43:43.122Z,29.80
2022-08-19T00:46:12.064Z,22.37
2022-08-19T00:48:39.701Z,22.33
2022-08-19T00:51:07.982Z,24.43
2022-08-19T00:53:35.998Z,23.87
2022-08-19T00:56:07.106Z,26.37
2022-08-19T00:58:36.110Z,24.63
2022-08-19T01:01:05.205Z,23.33
2022-08-19T01:03:56.966Z,26.80
2022-08-19T01:06:22.289Z,28.20
2022-08-19T01:08:50.297Z,36.17
2022-08-19T01:11:18.685Z,23.80
2022-08-19T01:13:50.042Z,33.77
2022-08-19T01:16:20.802Z,27.60
2022-08-19T01:18:50.454Z,26.37
2022-08-19T01:21:22.758Z,27.40
2022-08-19T01:23:52.210Z,27.43
2022-08-19T01:26:22.680Z,28.23
2022-08-19T01:28:54.314Z,27.00
2022-08-19T01:31:30.329Z,27.93
2022-08-19T01:34:01.629Z,27.90
2022-08-19T01:36:32.200Z,26.23
2022-08-19T01:39:01.985Z,26.57
2022-08-19T01:41:29.678Z,21.97
2022-08-19T01:44:17.055Z,29.30
2022-08-19T01:46:45.877Z,24.93
2022-08-19T01:49:13.469Z,25.40
2022-08-19T01:51:41.052Z,25.20
2022-08-19T01:54:11.341Z,24.50
2022-08-19T01:56:39.194Z,33.83
2022-08-19T01:59:12.487Z,26.50
2022-08-19T02:01:40.180Z,28.17
2022-08-19T02:04:08.010Z,26.40
2022-08-19T02:06:35.638Z,27.50
2022-08-19T02:09:03.811Z,28.80
2022-08-19T02:11:36.253Z,28.07
2022-08-19T02:14:06.602Z,26.80
2022-08-19T02:16:35.094Z,29.00
2022-08-19T02:19:02.718Z,28.90
2022-08-19T02:21:31.776Z,28.80
2022-08-19T02:23:59.417Z,26.93
2022-08-19T02:26:28.342Z,27.47
2022-08-19T02:28:57.528Z,32.00
2022-08-19T02:31:28.782Z,29.73
2022-08-19T02:33:57.232Z,39.40
2022-08-19T02:36:26.272Z,27.13
2022-08-19T02:38:54.992Z,32.07
2022-08-19T02:41:26.829Z,38.23
2022-08-19T02:44:30.561Z,40.57
2022-08-19T02:46:45.657Z,37.83
2022-08-19T02:49:13.329Z,41.17
2022-08-19T02:51:42.901Z,48.40
2022-08-19T02:54:11.716Z,48.47
2022-08-19T02:56:40.876Z,37.70
2022-08-19T02:59:11.237Z,38.13
2022-08-19T03:01:41.889Z,39.43
2022-08-19T03:04:13.753Z,49.13
2022-08-19T03:06:42.553Z,43.50
2022-08-19T03:09:11.606Z,53.13
2022-08-19T03:11:39.741Z,45.77
2022-08-19T03:14:09.072Z,49.03
2022-08-19T03:16:44.084Z,42.87
2022-08-19T03:19:13.080Z,31.23
2022-08-19T03:21:40.702Z,34.20
2022-08-19T03:24:10.889Z,40.30
2022-08-19T03:26:41.158Z,55.20
2022-08-19T03:29:11.525Z,43.23
2022-08-19T03:31:52.408Z,49.40
2022-08-19T03:34:27.188Z,42.00
2022-08-19T03:36:56.211Z,46.43
2022-08-19T03:39:25.086Z,43.73
2022-08-19T03:42:31.724Z,35.97
2022-08-19T03:44:43.201Z,38.67
2022-08-19T03:47:16.097Z,45.90
2022-08-19T03:49:45.144Z,45.07
2022-08-19T03:52:13.010Z,40.87
2022-08-19T03:54:40.624Z,46.60
2022-08-19T03:57:09.841Z,49.13
2022-08-19T03:59:39.005Z,37.80
2022-08-19T04:02:10.688Z,45.50
2022-08-19T04:04:39.300Z,36.00
2022-08-19T04:07:09.225Z,45.07
2022-08-19T04:09:38.097Z,39.47
2022-08-19T04:12:07.560Z,37.30
2022-08-19T04:14:36.209Z,44.57
2022-08-19T04:17:06.335Z,43.03
2022-08-19T04:19:35.745Z,33.47
2022-08-19T04:22:03.703Z,41.43
2022-08-19T04:24:33.037Z,41.83
2022-08-19T04:27:01.713Z,35.47
2022-08-19T04:29:29.818Z,42.87
2022-08-19T04:31:58.131Z,48.33
2022-08-19T04:34:28.093Z,40.70
2022-08-19T04:36:58.367Z,43.27
2022-08-19T04:39:49.118Z,45.10
2022-08-19T04:42:37.577Z,35.13
2022-08-19T04:45:06.368Z,37.80
2022-08-19T04:47:47.638Z,36.30
2022-08-19T04:50:25.601Z,36.67
2022-08-19T04:52:54.255Z,39.43
2022-08-19T04:55:22.145Z,38.50
2022-08-19T04:57:51.671Z,36.83
2022-08-19T05:00:19.575Z,40.93
2022-08-19T05:02:47.278Z,41.30
2022-08-19T05:05:14.993Z,37.50
2022-08-19T05:07:43.138Z,53.57
2022-08-19T05:10:12.464Z,44.43
2022-08-19T05:12:40.201Z,50.27
2022-08-19T05:15:10.328Z,51.20
2022-08-19T05:17:39.133Z,53.00
2022-08-19T05:20:26.090Z,47.73
2022-08-19T05:22:53.924Z,46.73
2022-08-19T05:25:23.301Z,51.33
2022-08-19T05:27:51.269Z,65.50
2022-08-19T05:30:33.407Z,52.00
2022-08-19T05:33:10.305Z,70.90
2022-08-19T05:35:38.141Z,54.93
2022-08-19T05:38:05.885Z,50.90
2022-08-19T05:40:35.346Z,54.17
2022-08-19T05:43:02.920Z,46.70
2022-08-19T05:45:31.926Z,47.53
2022-08-19T05:48:00.139Z,51.70
2022-08-19T05:50:27.728Z,49.97
2022-08-19T05:52:55.416Z,48.47
2022-08-19T05:55:23.519Z,44.47
2022-08-19T05:57:51.104Z,43.57
2022-08-19T06:00:22.725Z,43.03
2022-08-19T06:02:55.560Z,43.73
2022-08-19T06:05:23.334Z,47.77
2022-08-19T06:07:50.887Z,50.17
2022-08-19T06:10:18.490Z,50.03
2022-08-19T06:12:46.138Z,36.70
2022-08-19T06:15:15.545Z,45.13
2022-08-19T06:17:45.234Z,39.03
2022-08-19T06:20:17.772Z,43.70
2022-08-19T06:22:50.052Z,38.10
2022-08-19T06:25:18.601Z,38.33
2022-08-19T06:28:13.372Z,40.83
2022-08-19T06:30:34.396Z,36.97
2022-08-19T06:33:01.949Z,38.57
2022-08-19T06:35:31.100Z,45.50
2022-08-19T06:37:58.827Z,34.93
2022-08-19T06:40:26.464Z,34.03
2022-08-19T06:42:55.546Z,33.03
2022-08-19T06:45:24.970Z,34.87
2022-08-19T06:47:56.686Z,36.20
2022-08-19T06:50:25.162Z,34.07
2022-08-19T06:52:55.251Z,35.23
2022-08-19T06:55:23.111Z,27.33
2022-08-19T06:57:54.178Z,31.33
2022-08-19T07:00:22.239Z,32.57
2022-08-19T07:02:53.342Z,42.23
2022-08-19T07:05:25.064Z,33.43
2022-08-19T07:07:54.010Z,37.03
2022-08-19T07:10:26.103Z,31.07
2022-08-19T07:12:54.719Z,32.63
2022-08-19T07:15:22.566Z,34.73
2022-08-19T07:17:52.803Z,31.20
2022-08-19T07:20:21.106Z,28.43
2022-08-19T07:22:49.075Z,37.87
2022-08-19T07:25:18.796Z,31.27
2022-08-19T07:27:46.584Z,29.70
2022-08-19T07:30:23.296Z,30.37
2022-08-19T07:32:53.932Z,29.93
2022-08-19T07:35:21.518Z,32.33
2022-08-19T07:37:49.377Z,28.47
2022-08-19T07:40:18.412Z,29.10
2022-08-19T07:42:46.033Z,35.80
2022-08-19T07:45:13.957Z,36.50
2022-08-19T07:47:50.424Z,27.03
2022-08-19T07:50:20.720Z,29.37
2022-08-19T07:52:50.345Z,26.20
2022-08-19T07:55:40.321Z,28.40
2022-08-19T07:58:08.673Z,30.50
2022-08-19T08:00:36.977Z,28.83
2022-08-19T08:03:04.597Z,26.90
2022-08-19T08:05:49.520Z,27.33
2022-08-19T08:08:34.752Z,29.53
2022-08-19T08:11:03.724Z,27.07
2022-08-19T08:13:36.148Z,30.93
2022-08-19T08:16:04.557Z,29.37
2022-08-19T08:18:32.201Z,29.30
2022-08-19T08:21:00.266Z,28.43
2022-08-19T08:23:28.047Z,32.00
2022-08-19T08:25:59.818Z,29.03
2022-08-19T08:28:30.554Z,35.50
2022-08-19T08:30:59.341Z,29.83
2022-08-19T08:33:34.837Z,31.40
2022-08-19T08:36:03.950Z,30.07
2022-08-19T08:38:38.383Z,36.23
2022-08-19T08:41:15.105Z,32.60
2022-08-19T08:43:48.182Z,37.00
2022-08-19T08:46:31.410Z,32.63
2022-08-19T08:49:08.258Z,36.27
2022-08-19T08:54:19.746Z,39.37
2022-08-19T08:56:49.382Z,35.40
2022-08-19T08:59:23.813Z,40.33
2022-08-19T09:01:51.435Z,34.23
2022-08-19T09:04:19.744Z,33.53
2022-08-19T09:06:56.913Z,39.43
2022-08-19T09:09:33.198Z,28.53
2022-08-19T09:12:11.863Z,34.07
2022-08-19T09:14:51.538Z,30.60
2022-08-19T09:17:21.840Z,31.13
2022-08-19T09:19:53.233Z,29.00
2022-08-19T09:22:25.425Z,28.23
2022-08-19T09:24:55.253Z,24.87
2022-08-19T09:27:43.217Z,26.57
2022-08-19T09:30:16.616Z,31.33
2022-08-19T09:32:45.538Z,29.77
2022-08-19T09:35:15.217Z,27.83
2022-08-19T09:37:43.619Z,27.93
2022-08-19T09:40:13.183Z,25.93
2022-08-19T09:42:49.785Z,24.23
2022-08-19T09:45:22.771Z,30.83
2022-08-19T09:47:51.960Z,26.53
2022-08-19T09:50:20.032Z,27.77
2022-08-19T09:52:55.627Z,27.53
2022-08-19T09:55:31.631Z,32.80
2022-08-19T09:58:02.186Z,28.97
2022-08-19T10:00:32.675Z,31.60
2022-08-19T10:03:00.286Z,27.57
2022-08-19T10:05:48.572Z,30.30
2022-08-19T10:08:17.433Z,28.73
2022-08-19T10:10:46.225Z,26.07
2022-08-19T10:13:15.887Z,26.13
2022-08-19T10:15:48.111Z,30.07
2022-08-19T10:18:19.087Z,26.10
2022-08-19T10:20:51.459Z,31.77
2022-08-19T10:23:21.022Z,29.70
2022-08-19T10:25:49.195Z,30.10
2022-08-19T10:28:19.467Z,26.67
2022-08-19T10:30:49.372Z,27.20
2022-08-19T10:33:40.809Z,32.47
2022-08-19T10:36:08.500Z,27.23
2022-08-19T10:38:36.604Z,29.40
2022-08-19T10:41:12.417Z,37.10
2022-08-19T10:43:40.770Z,28.70
2022-08-19T10:46:14.221Z,29.10
2022-08-19T10:48:45.247Z,29.57
2022-08-19T10:51:30.719Z,30.00
2022-08-19T10:53:59.001Z,25.40
2022-08-19T10:56:44.751Z,26.27
2022-08-19T10:59:12.919Z,26.93
2022-08-19T11:01:43.632Z,27.43
2022-08-19T11:04:14.439Z,28.13
2022-08-19T11:06:42.320Z,26.33
2022-08-19T11:09:11.749Z,25.03
2022-08-19T11:11:41.853Z,24.00
2022-08-19T11:14:10.352Z,23.83
2022-08-19T11:16:39.943Z,26.90
2022-08-19T11:19:10.546Z,25.77
2022-08-19T11:21:40.509Z,24.87
2022-08-19T11:24:11.092Z,23.50
2022-08-19T11:26:40.388Z,26.07
2022-08-19T11:29:12.270Z,23.43
2022-08-19T11:31:42.734Z,26.53
2022-08-19T11:34:14.162Z,26.43
2022-08-19T11:36:45.740Z,21.43
2022-08-19T11:39:16.178Z,25.30
2022-08-19T11:41:44.073Z,25.77
2022-08-19T11:44:11.894Z,24.93
2022-08-19T11:46:40.294Z,22.03
2022-08-19T11:49:13.807Z,21.37
2022-08-19T11:51:44.329Z,23.07
2022-08-19T11:54:13.638Z,23.40
2022-08-19T11:56:42.465Z,20.97
2022-08-19T11:59:14.612Z,23.73
2022-08-19T12:01:44.177Z,25.03
2022-08-19T12:04:12.391Z,22.53
2022-08-19T12:06:43.352Z,20.23
2022-08-19T12:09:12.395Z,21.07
2022-08-19T12:11:41.419Z,22.20
2022-08-19T12:14:14.511Z,23.60
2022-08-19T12:16:49.120Z,24.90
2022-08-19T12:19:22.277Z,20.73
2022-08-19T12:21:53.858Z,22.63
2022-08-19T12:24:24.163Z,21.07
2022-08-19T12:26:53.986Z,21.27
2022-08-19T12:29:23.925Z,22.93
2022-08-19T12:31:51.713Z,22.20
2022-08-19T12:34:20.888Z,22.77
2022-08-19T12:36:50.113Z,20.67
2022-08-19T12:39:19.299Z,20.13
2022-08-19T12:41:54.698Z,21.70
2022-08-19T12:44:29.616Z,19.73
2022-08-19T12:47:01.560Z,21.27
2022-08-19T12:49:53.596Z,19.73
2022-08-19T12:52:23.353Z,21.70
2022-08-19T12:54:54.567Z,19.80
2022-08-19T12:57:24.394Z,20.23
2022-08-19T13:00:00.205Z,18.97
2022-08-19T13:02:28.038Z,18.23
2022-08-19T13:04:55.712Z,17.77
2022-08-19T13:07:23.326Z,17.90
2022-08-19T13:09:54.602Z,17.77
2022-08-19T13:12:25.022Z,16.30
2022-08-19T13:14:53.005Z,18.60
2022-08-19T13:17:20.624Z,18.07
2022-08-19T13:19:48.317Z,19.33
2022-08-19T13:22:15.912Z,18.70
2022-08-19T13:24:47.272Z,19.47
2022-08-19T13:27:16.584Z,17.33
2022-08-19T13:30:01.808Z,16.97
2022-08-19T13:32:48.920Z,17.80
2022-08-19T13:35:17.490Z,17.30
2022-08-19T13:37:46.254Z,18.50
2022-08-19T13:40:18.282Z,17.90
2022-08-19T13:42:49.177Z,19.40
2022-08-19T13:45:18.901Z,17.70
2022-08-19T13:47:48.204Z,20.33
2022-08-19T13:50:18.345Z,18.80
2022-08-19T13:52:46.521Z,18.10
2022-08-19T13:55:15.218Z,18.80
2022-08-19T13:57:53.808Z,18.43
2022-08-19T14:00:23.368Z,17.93
2022-08-19T14:02:53.784Z,16.50
2022-08-19T14:05:22.757Z,17.17
2022-08-19T14:07:50.780Z,15.57
2022-08-19T14:10:19.732Z,18.53
2022-08-19T14:12:48.233Z,17.00
2022-08-19T14:15:17.995Z,16.57
2022-08-19T14:17:47.531Z,16.70
2022-08-19T14:20:17.843Z,17.60
2022-08-19T14:22:47.505Z,17.00
2022-08-19T14:25:17.073Z,17.50
2022-08-19T14:27:45.365Z,14.53
2022-08-19T14:30:18.109Z,15.93
2022-08-19T14:32:45.801Z,16.50
2022-08-19T14:35:15.741Z,15.63
2022-08-19T14:37:56.515Z,16.60
2022-08-19T14:40:27.535Z,17.90
2022-08-19T14:43:00.217Z,17.27
2022-08-19T14:45:30.725Z,16.43
2022-08-19T14:48:00.200Z,16.20
2022-08-19T14:50:28.597Z,18.00
2022-08-19T14:53:04.372Z,17.90
2022-08-19T14:55:36.880Z,19.93
2022-08-19T14:58:05.066Z,19.20
2022-08-19T15:00:37.956Z,18.70
2022-08-19T15:03:05.518Z,20.07
2022-08-19T15:05:33.282Z,18.13
2022-08-19T15:08:05.037Z,20.87
2022-08-19T15:10:32.625Z,18.90
2022-08-19T15:13:00.289Z,20.53
2022-08-19T15:15:28.636Z,20.93
2022-08-19T15:18:03.108Z,19.30
2022-08-19T15:20:31.628Z,21.33
2022-08-19T15:22:59.536Z,20.47
2022-08-19T15:25:27.924Z,18.70
2022-08-19T15:27:55.574Z,17.20
2022-08-19T15:30:26.456Z,18.07
2022-08-19T15:32:55.488Z,18.00
2022-08-19T15:35:25.546Z,17.33
2022-08-19T15:37:54.326Z,18.70
2022-08-19T15:40:23.527Z,15.97
2022-08-19T15:42:51.690Z,15.67
2022-08-19T15:45:21.645Z,15.87
2022-08-19T15:47:49.517Z,14.70
2022-08-19T15:50:21.170Z,16.27
2022-08-19T15:52:53.102Z,16.37
2022-08-19T15:55:32.689Z,14.10
2022-08-19T15:58:21.896Z,13.90
2022-08-19T16:01:13.420Z,15.97
2022-08-19T16:04:04.003Z,15.00
2022-08-19T16:06:32.885Z,15.03
2022-08-19T16:09:04.440Z,14.60
2022-08-19T16:11:39.439Z,15.17
2022-08-19T16:14:09.177Z,14.27
2022-08-19T16:16:38.319Z,13.80
2022-08-19T16:19:11.962Z,14.77
2022-08-19T16:21:41.995Z,14.00
2022-08-19T16:24:13.573Z,15.03
2022-08-19T16:26:42.037Z,14.27
2022-08-19T16:29:12.185Z,15.27
2022-08-19T16:31:42.215Z,14.20
2022-08-19T16:34:10.284Z,12.60
2022-08-19T16:36:42.129Z,13.10
2022-08-19T16:39:12.198Z,13.77
2022-08-19T16:41:40.396Z,13.73
2022-08-19T16:44:09.661Z,14.50
2022-08-19T16:46:39.720Z,14.50
2022-08-19T16:49:08.412Z,14.27
2022-08-19T16:51:36.335Z,16.80
2022-08-19T16:54:04.967Z,15.23
2022-08-19T16:56:33.993Z,15.13
2022-08-19T16:59:01.638Z,15.83
2022-08-19T17:01:30.604Z,15.37
2022-08-19T17:03:58.629Z,15.17
2022-08-19T17:06:31.165Z,15.13
2022-08-19T17:09:00.808Z,15.80
2022-08-19T17:11:32.853Z,14.70
2022-08-19T17:14:02.877Z,12.43
2022-08-19T17:16:33.137Z,13.67
2022-08-19T17:19:03.569Z,13.20
2022-08-19T17:21:33.872Z,13.10
2022-08-19T17:24:04.613Z,12.90
2022-08-19T17:26:32.729Z,14.73
2022-08-19T17:29:01.792Z,10.07
2022-08-19T17:31:31.274Z,11.80
2022-08-19T17:33:59.177Z,11.07
2022-08-19T17:36:29.178Z,10.93
2022-08-19T17:38:58.308Z,10.03
2022-08-19T17:41:27.038Z,9.83
2022-08-19T17:43:55.281Z,9.97
2022-08-19T17:46:24.335Z,8.67
2022-08-19T17:48:55.046Z,8.77
2022-08-19T17:51:26.610Z,8.47
2022-08-19T17:53:55.713Z,8.70
2022-08-19T17:56:23.910Z,9.00
2022-08-19T17:59:00.209Z,8.73
2022-08-19T18:01:43.805Z,8.90
2022-08-19T18:04:18.833Z,8.07
2022-08-19T18:06:53.078Z,8.93
2022-08-19T18:09:23.981Z,8.90
2022-08-19T18:11:53.373Z,9.83
2022-08-19T18:14:28.080Z,7.97
2022-08-19T18:17:02.812Z,8.10
2022-08-19T18:19:41.525Z,8.90
2022-08-19T18:22:09.713Z,9.10
2022-08-19T18:24:38.824Z,8.17
2022-08-19T18:27:06.792Z,8.20
2022-08-19T18:29:38.049Z,7.80
2022-08-19T18:32:12.443Z,7.00
2022-08-19T18:34:41.043Z,7.00
2022-08-19T18:37:08.649Z,7.27
2022-08-19T18:39:54.117Z,8.00
2022-08-19T18:42:39.523Z,6.40
2022-08-19T18:45:25.884Z,6.60
2022-08-19T18:48:24.029Z,6.70
2022-08-19T18:50:54.277Z,6.60
2022-08-19T18:53:21.851Z,6.67
2022-08-19T18:55:53.806Z,6.43
2022-08-19T18:58:25.951Z,5.80
2022-08-19T19:00:55.805Z,7.07
2022-08-19T19:03:25.195Z,6.03
2022-08-19T19:05:53.094Z,6.00
2022-08-19T19:08:27.076Z,6.00
2022-08-19T19:10:55.874Z,6.43
2022-08-19T19:13:23.481Z,6.10
2022-08-19T19:15:51.545Z,6.60
2022-08-19T19:18:19.162Z,6.00
2022-08-19T19:20:48.101Z,6.73
2022-08-19T19:23:15.674Z,5.97
2022-08-19T19:25:51.036Z,6.33
2022-08-19T19:28:23.827Z,6.43
2022-08-19T19:30:52.312Z,6.07
2022-08-19T19:33:20.237Z,5.73
2022-08-19T19:35:49.457Z,6.60
2022-08-19T19:38:17.218Z,5.50
2022-08-19T19:40:45.445Z,5.10
2022-08-19T19:43:13.035Z,5.70
2022-08-19T19:45:41.181Z,5.50
2022-08-19T19:48:09.348Z,5.53
2022-08-19T19:50:36.940Z,6.70
2022-08-19T19:53:06.314Z,5.37
2022-08-19T19:55:33.886Z,6.23
2022-08-19T19:58:01.481Z,5.87
2022-08-19T20:00:29.806Z,5.00
2022-08-19T20:02:57.433Z,5.30
2022-08-19T20:05:25.771Z,5.00
2022-08-19T20:08:12.561Z,4.87
2022-08-19T20:10:43.646Z,5.67
2022-08-19T20:13:11.772Z,5.07
2022-08-19T20:15:43.349Z,5.57
2022-08-19T20:18:12.021Z,5.60
2022-08-19T20:20:40.080Z,5.53
2022-08-19T20:23:07.985Z,5.53
2022-08-19T20:25:35.608Z,4.90
2022-08-19T20:28:05.736Z,5.30
2022-08-19T20:30:34.003Z,5.50
2022-08-19T20:33:06.740Z,5.20
2022-08-19T20:35:36.106Z,4.97
2022-08-19T20:38:04.792Z,4.47
2022-08-19T20:40:34.082Z,4.97
2022-08-19T20:43:01.780Z,4.93
2022-08-19T20:45:33.887Z,4.43
2022-08-19T20:48:02.806Z,5.57
2022-08-19T20:50:31.221Z,4.53
2022-08-19T20:52:59.305Z,4.37
2022-08-19T20:55:28.277Z,4.83
2022-08-19T20:57:56.422Z,4.70
2022-08-19T21:00:24.139Z,4.80
2022-08-19T21:02:53.045Z,4.80
2022-08-19T21:05:20.625Z,4.53
2022-08-19T21:07:48.189Z,4.70
2022-08-19T21:10:16.532Z,4.50
2022-08-19T21:12:44.507Z,4.20
2022-08-19T21:15:12.418Z,4.17
2022-08-19T21:17:40.187Z,4.97
2022-08-19T21:20:10.419Z,4.67
2022-08-19T21:22:38.000Z,5.03
2022-08-19T21:25:07.045Z,4.50
2022-08-19T21:27:34.741Z,4.73
2022-08-19T21:30:02.318Z,6.43
2022-08-19T21:32:29.901Z,5.50
2022-08-19T21:34:57.760Z,4.93
2022-08-19T21:37:26.725Z,6.00
2022-08-19T21:39:54.511Z,5.87
2022-08-19T21:42:22.848Z,5.70
2022-08-19T21:44:50.446Z,6.47
2022-08-19T21:47:18.435Z,6.03
2022-08-19T21:49:46.099Z,6.63
2022-08-19T21:52:13.818Z,6.27
2022-08-19T21:54:42.997Z,6.57
2022-08-19T21:57:11.073Z,6.13
2022-08-19T21:59:39.601Z,6.23
2022-08-19T22:02:19.436Z,5.70
2022-08-19T22:04:48.020Z,5.70
2022-08-19T22:07:15.701Z,5.40
2022-08-19T22:09:46.220Z,5.10
2022-08-19T22:12:26.529Z,5.07
2022-08-19T22:14:54.437Z,4.87
2022-08-19T22:17:23.315Z,6.13
2022-08-19T22:19:52.421Z,5.60
2022-08-19T22:22:25.184Z,5.90
2022-08-19T22:24:56.077Z,5.60
2022-08-19T22:27:23.729Z,4.60
2022-08-19T22:29:52.662Z,4.73
2022-08-19T22:32:28.106Z,6.27
2022-08-19T22:34:58.592Z,5.70
2022-08-19T22:37:27.096Z,6.60
2022-08-19T22:39:56.367Z,6.83
2022-08-19T22:42:25.243Z,5.70
2022-08-19T22:45:00.027Z,6.97
2022-08-19T22:47:32.166Z,7.00
2022-08-19T22:50:03.225Z,6.20
2022-08-19T22:52:31.630Z,6.70
2022-08-19T22:55:03.456Z,8.80
2022-08-19T22:57:31.052Z,8.70
2022-08-19T22:59:58.841Z,10.13
2022-08-19T23:02:32.021Z,11.77
2022-08-19T23:05:02.266Z,10.20
2022-08-19T23:07:29.853Z,12.20
2022-08-19T23:09:57.714Z,10.00
2022-08-19T23:12:31.925Z,14.53
2022-08-19T23:15:03.060Z,10.90
2022-08-19T23:17:30.644Z,12.67
2022-08-19T23:19:59.581Z,13.07
2022-08-19T23:22:27.363Z,12.90
2022-08-19T23:24:56.110Z,13.40
2022-08-19T23:27:41.550Z,13.10
2022-08-19T23:30:27.048Z,11.53
2022-08-19T23:32:55.489Z,12.33
2022-08-19T23:35:24.229Z,13.20
2022-08-19T23:37:52.557Z,14.97
2022-08-19T23:40:22.112Z,14.57
2022-08-19T23:42:50.916Z,14.43
2022-08-19T23:45:23.916Z,14.17
2022-08-19T23:47:53.307Z,14.53
2022-08-19T23:50:22.666Z,13.27
2022-08-19T23:52:52.563Z,14.23
2022-08-19T23:55:23.591Z,11.40
2022-08-19T23:57:51.197Z,15.23
